sensor_id;sensor_type;location;lat;lon;timestamp;P1;durP1;ratioP1;P2;durP2;ratioP2
51495;SDS011;37572;52.094;4.870;2022-11-15T00:00:31;58.38;;;25.92;;
51495;SDS011;37572;52.094;4.870;2022-11-15T00:02:56;56.27;;;25.97;;
51495;SDS011;37572;52.094;4.870;2022-11-15T00:05:22;54.63;;;23.57;;
51495;SDS011;37572;52.094;4.870;2022-11-15T00:07:47;64.03;;;25.30;;
51495;SDS011;37572;52.094;4.870;2022-11-15T00:10:12;62.23;;;25.57;;
51495;SDS011;37572;52.094;4.870;2022-11-15T00:12:37;62.57;;;24.90;;
51495;SDS011;37572;52.094;4.870;2022-11-15T00:15:03;65.07;;;24.95;;
51495;SDS011;37572;52.094;4.870;2022-11-15T00:17:28;61.88;;;25.67;;
51495;SDS011;37572;52.094;4.870;2022-11-15T00:19:53;62.37;;;25.47;;
51495;SDS011;37572;52.094;4.870;2022-11-15T00:22:18;68.03;;;25.17;;
51495;SDS011;37572;52.094;4.870;2022-11-15T00:24:43;65.80;;;23.90;;
51495;SDS011;37572;52.094;4.870;2022-11-15T00:27:09;67.33;;;26.83;;
51495;SDS011;37572;52.094;4.870;2022-11-15T00:29:34;67.27;;;24.70;;
51495;SDS011;37572;52.094;4.870;2022-11-15T00:31:59;70.70;;;26.97;;
51495;SDS011;37572;52.094;4.870;2022-11-15T00:34:24;60.63;;;21.23;;
51495;SDS011;37572;52.094;4.870;2022-11-15T00:36:49;73.20;;;26.07;;
51495;SDS011;37572;52.094;4.870;2022-11-15T00:39:15;64.63;;;24.07;;
51495;SDS011;37572;52.094;4.870;2022-11-15T00:41:40;72.57;;;26.90;;
51495;SDS011;37572;52.094;4.870;2022-11-15T00:44:05;76.77;;;25.80;;
51495;SDS011;37572;52.094;4.870;2022-11-15T00:46:30;79.37;;;28.07;;
51495;SDS011;37572;52.094;4.870;2022-11-15T00:48:55;73.20;;;25.20;;
51495;SDS011;37572;52.094;4.870;2022-11-15T00:51:21;79.83;;;26.37;;
51495;SDS011;37572;52.094;4.870;2022-11-15T00:53:46;84.53;;;27.25;;
51495;SDS011;37572;52.094;4.870;2022-11-15T00:56:11;78.10;;;27.97;;
51495;SDS011;37572;52.094;4.870;2022-11-15T00:58:36;74.37;;;26.77;;
51495;SDS011;37572;52.094;4.870;2022-11-15T01:01:08;68.03;;;23.83;;
51495;SDS011;37572;52.094;4.870;2022-11-15T01:03:34;71.28;;;24.88;;
51495;SDS011;37572;52.094;4.870;2022-11-15T01:06:00;73.85;;;25.42;;
51495;SDS011;37572;52.094;4.870;2022-11-15T01:08:25;79.43;;;26.10;;
51495;SDS011;37572;52.094;4.870;2022-11-15T01:10:50;80.80;;;27.73;;
51495;SDS011;37572;52.094;4.870;2022-11-15T01:13:15;88.90;;;29.37;;
51495;SDS011;37572;52.094;4.870;2022-11-15T01:15:41;89.30;;;25.83;;
51495;SDS011;37572;52.094;4.870;2022-11-15T01:18:06;82.25;;;27.55;;
51495;SDS011;37572;52.094;4.870;2022-11-15T01:20:31;88.07;;;29.03;;
51495;SDS011;37572;52.094;4.870;2022-11-15T01:22:56;92.63;;;29.27;;
51495;SDS011;37572;52.094;4.870;2022-11-15T01:25:22;82.47;;;26.57;;
51495;SDS011;37572;52.094;4.870;2022-11-15T01:27:47;86.73;;;27.93;;
51495;SDS011;37572;52.094;4.870;2022-11-15T01:30:12;89.90;;;27.73;;
51495;SDS011;37572;52.094;4.870;2022-11-15T01:32:37;91.00;;;29.40;;
51495;SDS011;37572;52.094;4.870;2022-11-15T01:35:02;67.77;;;22.47;;
51495;SDS011;37572;52.094;4.870;2022-11-15T01:37:28;92.27;;;29.50;;
51495;SDS011;37572;52.094;4.870;2022-11-15T01:39:53;93.83;;;26.93;;
51495;SDS011;37572;52.094;4.870;2022-11-15T01:42:18;86.73;;;28.00;;
51495;SDS011;37572;52.094;4.870;2022-11-15T01:44:45;94.73;;;29.93;;
51495;SDS011;37572;52.094;4.870;2022-11-15T01:49:53;93.40;;;29.45;;
51495;SDS011;37572;52.094;4.870;2022-11-15T01:52:20;84.60;;;27.75;;
51495;SDS011;37572;52.094;4.870;2022-11-15T01:54:47;93.85;;;31.20;;
51495;SDS011;37572;52.094;4.870;2022-11-15T01:57:13;89.70;;;29.50;;
51495;SDS011;37572;52.094;4.870;2022-11-15T01:59:39;99.87;;;29.47;;
51495;SDS011;37572;52.094;4.870;2022-11-15T02:02:05;87.90;;;28.92;;
51495;SDS011;37572;52.094;4.870;2022-11-15T02:04:35;82.97;;;25.48;;
51495;SDS011;37572;52.094;4.870;2022-11-15T02:07:02;94.40;;;28.65;;
51495;SDS011;37572;52.094;4.870;2022-11-15T02:09:28;90.07;;;29.85;;
51495;SDS011;37572;52.094;4.870;2022-11-15T02:11:53;103.32;;;32.35;;
51495;SDS011;37572;52.094;4.870;2022-11-15T02:14:19;74.68;;;27.80;;
51495;SDS011;37572;52.094;4.870;2022-11-15T02:16:58;98.95;;;31.80;;
51495;SDS011;37572;52.094;4.870;2022-11-15T02:22:03;97.18;;;35.08;;
51495;SDS011;37572;52.094;4.870;2022-11-15T02:24:41;91.20;;;33.33;;
51495;SDS011;37572;52.094;4.870;2022-11-15T02:32:09;106.45;;;33.03;;
51495;SDS011;37572;52.094;4.870;2022-11-15T02:37:16;92.05;;;31.65;;
51495;SDS011;37572;52.094;4.870;2022-11-15T02:39:46;104.60;;;32.45;;
51495;SDS011;37572;52.094;4.870;2022-11-15T02:42:19;72.20;;;24.67;;
51495;SDS011;37572;52.094;4.870;2022-11-15T02:45:04;99.63;;;31.45;;
51495;SDS011;37572;52.094;4.870;2022-11-15T02:47:33;102.40;;;33.85;;
51495;SDS011;37572;52.094;4.870;2022-11-15T02:50:00;89.18;;;30.25;;
51495;SDS011;37572;52.094;4.870;2022-11-15T02:52:27;88.53;;;30.67;;
51495;SDS011;37572;52.094;4.870;2022-11-15T02:54:55;78.77;;;28.03;;
51495;SDS011;37572;52.094;4.870;2022-11-15T02:57:43;87.05;;;29.20;;
51495;SDS011;37572;52.094;4.870;2022-11-15T03:15:56;92.20;;;32.40;;
51495;SDS011;37572;52.094;4.870;2022-11-15T03:18:26;84.50;;;29.42;;
51495;SDS011;37572;52.094;4.870;2022-11-15T03:20:54;99.55;;;32.88;;
51495;SDS011;37572;52.094;4.870;2022-11-15T03:23:20;92.57;;;33.40;;
51495;SDS011;37572;52.094;4.870;2022-11-15T03:25:46;95.60;;;33.10;;
51495;SDS011;37572;52.094;4.870;2022-11-15T03:28:15;97.78;;;33.58;;
51495;SDS011;37572;52.094;4.870;2022-11-15T03:30:42;97.65;;;34.40;;
51495;SDS011;37572;52.094;4.870;2022-11-15T03:33:08;95.57;;;33.03;;
51495;SDS011;37572;52.094;4.870;2022-11-15T03:35:37;94.97;;;33.38;;
51495;SDS011;37572;52.094;4.870;2022-11-15T03:40:39;93.90;;;31.98;;
51495;SDS011;37572;52.094;4.870;2022-11-15T03:45:39;85.90;;;30.35;;
51495;SDS011;37572;52.094;4.870;2022-11-15T03:48:07;97.65;;;34.40;;
51495;SDS011;37572;52.094;4.870;2022-11-15T03:50:35;92.85;;;34.35;;
51495;SDS011;37572;52.094;4.870;2022-11-15T03:53:01;72.60;;;29.20;;
51495;SDS011;37572;52.094;4.870;2022-11-15T03:55:26;86.22;;;32.85;;
51495;SDS011;37572;52.094;4.870;2022-11-15T03:57:53;93.23;;;31.93;;
51495;SDS011;37572;52.094;4.870;2022-11-15T04:00:19;73.10;;;27.83;;
51495;SDS011;37572;52.094;4.870;2022-11-15T04:02:44;77.90;;;29.97;;
51495;SDS011;37572;52.094;4.870;2022-11-15T04:05:09;87.17;;;30.83;;
51495;SDS011;37572;52.094;4.870;2022-11-15T04:07:34;85.47;;;29.20;;
51495;SDS011;37572;52.094;4.870;2022-11-15T04:10:00;95.23;;;32.37;;
51495;SDS011;37572;52.094;4.870;2022-11-15T04:12:28;79.82;;;30.40;;
51495;SDS011;37572;52.094;4.870;2022-11-15T04:15:00;90.00;;;32.17;;
51495;SDS011;37572;52.094;4.870;2022-11-15T04:17:31;87.85;;;31.38;;
51495;SDS011;37572;52.094;4.870;2022-11-15T04:19:57;74.53;;;30.70;;
51495;SDS011;37572;52.094;4.870;2022-11-15T04:22:41;81.07;;;32.22;;
51495;SDS011;37572;52.094;4.870;2022-11-15T04:25:24;71.47;;;26.50;;
51495;SDS011;37572;52.094;4.870;2022-11-15T04:27:50;75.33;;;29.50;;
51495;SDS011;37572;52.094;4.870;2022-11-15T04:30:15;81.63;;;29.47;;
51495;SDS011;37572;52.094;4.870;2022-11-15T04:32:40;77.78;;;28.83;;
51495;SDS011;37572;52.094;4.870;2022-11-15T04:35:05;79.37;;;30.53;;
51495;SDS011;37572;52.094;4.870;2022-11-15T04:37:31;73.20;;;28.53;;
51495;SDS011;37572;52.094;4.870;2022-11-15T04:39:56;87.47;;;30.73;;
51495;SDS011;37572;52.094;4.870;2022-11-15T04:42:21;68.93;;;27.10;;
51495;SDS011;37572;52.094;4.870;2022-11-15T04:44:46;65.07;;;25.47;;
51495;SDS011;37572;52.094;4.870;2022-11-15T04:47:11;73.20;;;27.33;;
51495;SDS011;37572;52.094;4.870;2022-11-15T04:49:36;77.83;;;28.37;;
51495;SDS011;37572;52.094;4.870;2022-11-15T04:52:02;77.37;;;29.93;;
51495;SDS011;37572;52.094;4.870;2022-11-15T04:54:27;84.30;;;28.60;;
51495;SDS011;37572;52.094;4.870;2022-11-15T04:56:52;80.43;;;29.20;;
51495;SDS011;37572;52.094;4.870;2022-11-15T04:59:17;72.23;;;28.20;;
51495;SDS011;37572;52.094;4.870;2022-11-15T05:01:42;75.63;;;26.43;;
51495;SDS011;37572;52.094;4.870;2022-11-15T05:04:08;75.20;;;28.30;;
51495;SDS011;37572;52.094;4.870;2022-11-15T05:06:48;74.97;;;27.77;;
51495;SDS011;37572;52.094;4.870;2022-11-15T05:09:13;82.32;;;28.95;;
51495;SDS011;37572;52.094;4.870;2022-11-15T05:11:39;79.18;;;28.85;;
51495;SDS011;37572;52.094;4.870;2022-11-15T05:14:04;64.78;;;27.00;;
51495;SDS011;37572;52.094;4.870;2022-11-15T05:16:29;75.97;;;29.63;;
51495;SDS011;37572;52.094;4.870;2022-11-15T05:18:55;66.00;;;26.47;;
51495;SDS011;37572;52.094;4.870;2022-11-15T05:21:20;72.10;;;28.10;;
51495;SDS011;37572;52.094;4.870;2022-11-15T05:23:45;60.25;;;24.88;;
51495;SDS011;37572;52.094;4.870;2022-11-15T05:26:12;64.80;;;25.53;;
51495;SDS011;37572;52.094;4.870;2022-11-15T05:28:37;71.00;;;27.65;;
51495;SDS011;37572;52.094;4.870;2022-11-15T05:31:03;65.20;;;25.80;;
51495;SDS011;37572;52.094;4.870;2022-11-15T05:33:28;69.20;;;26.73;;
51495;SDS011;37572;52.094;4.870;2022-11-15T05:36:00;69.37;;;26.40;;
51495;SDS011;37572;52.094;4.870;2022-11-15T05:38:26;67.03;;;25.85;;
51495;SDS011;37572;52.094;4.870;2022-11-15T05:40:51;65.13;;;24.50;;
51495;SDS011;37572;52.094;4.870;2022-11-15T05:43:16;63.87;;;25.07;;
51495;SDS011;37572;52.094;4.870;2022-11-15T05:45:42;69.77;;;26.77;;
51495;SDS011;37572;52.094;4.870;2022-11-15T05:48:07;65.13;;;26.30;;
51495;SDS011;37572;52.094;4.870;2022-11-15T05:50:34;63.97;;;25.67;;
51495;SDS011;37572;52.094;4.870;2022-11-15T05:53:00;68.03;;;24.25;;
51495;SDS011;37572;52.094;4.870;2022-11-15T05:55:26;65.78;;;25.88;;
51495;SDS011;37572;52.094;4.870;2022-11-15T05:57:51;57.60;;;23.50;;
51495;SDS011;37572;52.094;4.870;2022-11-15T06:00:16;66.93;;;25.07;;
51495;SDS011;37572;52.094;4.870;2022-11-15T06:02:42;63.73;;;24.53;;
51495;SDS011;37572;52.094;4.870;2022-11-15T06:05:07;58.70;;;23.93;;
51495;SDS011;37572;52.094;4.870;2022-11-15T06:07:32;54.73;;;23.67;;
51495;SDS011;37572;52.094;4.870;2022-11-15T06:09:57;58.73;;;22.63;;
51495;SDS011;37572;52.094;4.870;2022-11-15T06:12:22;55.90;;;23.37;;
51495;SDS011;37572;52.094;4.870;2022-11-15T06:14:48;61.37;;;23.63;;
51495;SDS011;37572;52.094;4.870;2022-11-15T06:17:13;52.93;;;22.10;;
51495;SDS011;37572;52.094;4.870;2022-11-15T06:19:38;55.57;;;22.97;;
51495;SDS011;37572;52.094;4.870;2022-11-15T06:22:03;51.40;;;21.63;;
51495;SDS011;37572;52.094;4.870;2022-11-15T06:24:28;56.57;;;23.13;;
51495;SDS011;37572;52.094;4.870;2022-11-15T06:26:53;58.00;;;22.10;;
51495;SDS011;37572;52.094;4.870;2022-11-15T06:29:19;57.33;;;22.10;;
51495;SDS011;37572;52.094;4.870;2022-11-15T06:31:44;54.23;;;21.97;;
51495;SDS011;37572;52.094;4.870;2022-11-15T06:34:09;53.70;;;22.10;;
51495;SDS011;37572;52.094;4.870;2022-11-15T06:36:35;46.20;;;19.83;;
51495;SDS011;37572;52.094;4.870;2022-11-15T06:39:01;53.40;;;21.17;;
51495;SDS011;37572;52.094;4.870;2022-11-15T06:41:26;54.67;;;23.50;;
51495;SDS011;37572;52.094;4.870;2022-11-15T06:43:51;52.47;;;22.80;;
51495;SDS011;37572;52.094;4.870;2022-11-15T06:46:16;53.83;;;23.83;;
51495;SDS011;37572;52.094;4.870;2022-11-15T06:48:41;50.47;;;23.30;;
51495;SDS011;37572;52.094;4.870;2022-11-15T06:51:06;56.70;;;22.40;;
51495;SDS011;37572;52.094;4.870;2022-11-15T06:53:33;46.72;;;20.05;;
51495;SDS011;37572;52.094;4.870;2022-11-15T06:55:58;48.93;;;21.03;;
51495;SDS011;37572;52.094;4.870;2022-11-15T06:58:23;45.10;;;21.27;;
51495;SDS011;37572;52.094;4.870;2022-11-15T07:00:49;43.50;;;19.73;;
51495;SDS011;37572;52.094;4.870;2022-11-15T07:03:14;50.67;;;21.87;;
51495;SDS011;37572;52.094;4.870;2022-11-15T07:05:39;49.47;;;20.47;;
51495;SDS011;37572;52.094;4.870;2022-11-15T07:08:04;42.50;;;18.60;;
51495;SDS011;37572;52.094;4.870;2022-11-15T07:10:30;48.47;;;20.70;;
51495;SDS011;37572;52.094;4.870;2022-11-15T07:12:55;45.83;;;19.48;;
51495;SDS011;37572;52.094;4.870;2022-11-15T07:15:22;42.25;;;19.65;;
51495;SDS011;37572;52.094;4.870;2022-11-15T07:17:48;44.53;;;20.70;;
51495;SDS011;37572;52.094;4.870;2022-11-15T07:20:13;43.03;;;19.63;;
51495;SDS011;37572;52.094;4.870;2022-11-15T07:22:39;43.05;;;18.70;;
51495;SDS011;37572;52.094;4.870;2022-11-15T07:25:04;40.53;;;19.25;;
51495;SDS011;37572;52.094;4.870;2022-11-15T07:27:30;39.90;;;19.97;;
51495;SDS011;37572;52.094;4.870;2022-11-15T07:29:55;36.67;;;16.50;;
51495;SDS011;37572;52.094;4.870;2022-11-15T07:32:20;37.53;;;18.00;;
51495;SDS011;37572;52.094;4.870;2022-11-15T07:34:45;39.83;;;17.70;;
51495;SDS011;37572;52.094;4.870;2022-11-15T07:37:11;34.45;;;17.45;;
51495;SDS011;37572;52.094;4.870;2022-11-15T07:39:36;38.13;;;17.67;;
51495;SDS011;37572;52.094;4.870;2022-11-15T07:42:01;35.23;;;17.00;;
51495;SDS011;37572;52.094;4.870;2022-11-15T07:44:45;37.60;;;17.58;;
51495;SDS011;37572;52.094;4.870;2022-11-15T07:47:10;40.87;;;18.03;;
51495;SDS011;37572;52.094;4.870;2022-11-15T07:49:35;39.47;;;16.23;;
51495;SDS011;37572;52.094;4.870;2022-11-15T07:52:00;35.30;;;16.47;;
51495;SDS011;37572;52.094;4.870;2022-11-15T07:54:26;34.57;;;16.70;;
51495;SDS011;37572;52.094;4.870;2022-11-15T07:56:51;35.83;;;16.93;;
51495;SDS011;37572;52.094;4.870;2022-11-15T07:59:16;36.47;;;16.77;;
51495;SDS011;37572;52.094;4.870;2022-11-15T08:01:41;34.53;;;16.73;;
51495;SDS011;37572;52.094;4.870;2022-11-15T08:04:06;32.47;;;15.03;;
51495;SDS011;37572;52.094;4.870;2022-11-15T08:06:32;29.77;;;16.40;;
51495;SDS011;37572;52.094;4.870;2022-11-15T08:08:57;32.10;;;15.83;;
51495;SDS011;37572;52.094;4.870;2022-11-15T08:11:22;33.33;;;15.27;;
51495;SDS011;37572;52.094;4.870;2022-11-15T08:13:47;37.03;;;16.10;;
51495;SDS011;37572;52.094;4.870;2022-11-15T08:16:12;34.43;;;15.50;;
51495;SDS011;37572;52.094;4.870;2022-11-15T08:18:37;28.67;;;14.33;;
51495;SDS011;37572;52.094;4.870;2022-11-15T08:21:03;30.63;;;16.10;;
51495;SDS011;37572;52.094;4.870;2022-11-15T08:23:28;31.88;;;14.82;;
51495;SDS011;37572;52.094;4.870;2022-11-15T08:26:01;29.75;;;14.43;;
51495;SDS011;37572;52.094;4.870;2022-11-15T08:28:28;26.77;;;14.77;;
51495;SDS011;37572;52.094;4.870;2022-11-15T08:30:53;26.35;;;12.43;;
51495;SDS011;37572;52.094;4.870;2022-11-15T08:33:18;27.37;;;13.60;;
51495;SDS011;37572;52.094;4.870;2022-11-15T08:35:44;25.63;;;12.27;;
51495;SDS011;37572;52.094;4.870;2022-11-15T08:38:09;25.67;;;12.00;;
51495;SDS011;37572;52.094;4.870;2022-11-15T08:40:34;26.07;;;13.03;;
51495;SDS011;37572;52.094;4.870;2022-11-15T08:42:59;22.87;;;11.70;;
51495;SDS011;37572;52.094;4.870;2022-11-15T08:45:27;26.23;;;13.07;;
51495;SDS011;37572;52.094;4.870;2022-11-15T08:47:52;18.57;;;10.60;;
51495;SDS011;37572;52.094;4.870;2022-11-15T08:50:17;19.90;;;11.13;;
51495;SDS011;37572;52.094;4.870;2022-11-15T08:52:43;19.67;;;10.00;;
51495;SDS011;37572;52.094;4.870;2022-11-15T08:55:08;22.67;;;9.73;;
51495;SDS011;37572;52.094;4.870;2022-11-15T08:57:33;18.97;;;11.07;;
51495;SDS011;37572;52.094;4.870;2022-11-15T08:59:58;18.50;;;9.93;;
51495;SDS011;37572;52.094;4.870;2022-11-15T09:02:23;17.63;;;9.70;;
51495;SDS011;37572;52.094;4.870;2022-11-15T09:04:49;21.37;;;10.73;;
51495;SDS011;37572;52.094;4.870;2022-11-15T09:07:14;18.10;;;7.80;;
51495;SDS011;37572;52.094;4.870;2022-11-15T09:09:39;18.33;;;9.07;;
51495;SDS011;37572;52.094;4.870;2022-11-15T09:12:05;18.02;;;9.27;;
51495;SDS011;37572;52.094;4.870;2022-11-15T09:14:30;16.40;;;8.90;;
51495;SDS011;37572;52.094;4.870;2022-11-15T09:16:56;14.60;;;7.90;;
51495;SDS011;37572;52.094;4.870;2022-11-15T09:19:21;13.83;;;8.90;;
51495;SDS011;37572;52.094;4.870;2022-11-15T09:21:46;15.73;;;9.05;;
51495;SDS011;37572;52.094;4.870;2022-11-15T09:24:11;16.00;;;9.20;;
51495;SDS011;37572;52.094;4.870;2022-11-15T09:26:37;18.17;;;8.90;;
51495;SDS011;37572;52.094;4.870;2022-11-15T09:29:02;17.20;;;9.10;;
51495;SDS011;37572;52.094;4.870;2022-11-15T09:31:27;17.30;;;8.27;;
51495;SDS011;37572;52.094;4.870;2022-11-15T09:33:54;14.98;;;8.30;;
51495;SDS011;37572;52.094;4.870;2022-11-15T09:36:19;14.68;;;7.38;;
51495;SDS011;37572;52.094;4.870;2022-11-15T09:38:44;15.37;;;7.77;;
51495;SDS011;37572;52.094;4.870;2022-11-15T09:43:50;13.68;;;7.97;;
51495;SDS011;37572;52.094;4.870;2022-11-15T09:46:26;11.13;;;6.78;;
51495;SDS011;37572;52.094;4.870;2022-11-15T09:48:54;12.02;;;7.00;;
51495;SDS011;37572;52.094;4.870;2022-11-15T09:53:52;11.48;;;6.13;;
51495;SDS011;37572;52.094;4.870;2022-11-15T09:56:21;10.38;;;6.00;;
51495;SDS011;37572;52.094;4.870;2022-11-15T09:59:01;12.60;;;6.38;;
51495;SDS011;37572;52.094;4.870;2022-11-15T10:03:59;11.77;;;6.28;;
51495;SDS011;37572;52.094;4.870;2022-11-15T10:06:25;10.23;;;5.57;;
51495;SDS011;37572;52.094;4.870;2022-11-15T10:08:57;10.70;;;5.50;;
51495;SDS011;37572;52.094;4.870;2022-11-15T10:11:27;9.75;;;5.55;;
51495;SDS011;37572;52.094;4.870;2022-11-15T10:13:53;10.80;;;6.07;;
51495;SDS011;37572;52.094;4.870;2022-11-15T10:18:58;13.07;;;6.82;;
51495;SDS011;37572;52.094;4.870;2022-11-15T10:21:29;9.50;;;6.03;;
51495;SDS011;37572;52.094;4.870;2022-11-15T10:23:57;8.98;;;5.82;;
51495;SDS011;37572;52.094;4.870;2022-11-15T10:26:23;9.07;;;5.72;;
51495;SDS011;37572;52.094;4.870;2022-11-15T10:28:48;7.43;;;5.15;;
51495;SDS011;37572;52.094;4.870;2022-11-15T10:31:21;9.90;;;5.10;;
51495;SDS011;37572;52.094;4.870;2022-11-15T10:33:47;9.85;;;6.47;;
51495;SDS011;37572;52.094;4.870;2022-11-15T10:44:02;8.73;;;3.92;;
51495;SDS011;37572;52.094;4.870;2022-11-15T10:46:28;6.70;;;4.07;;
51495;SDS011;37572;52.094;4.870;2022-11-15T10:48:53;7.53;;;4.23;;
51495;SDS011;37572;52.094;4.870;2022-11-15T10:51:34;6.50;;;4.22;;
51495;SDS011;37572;52.094;4.870;2022-11-15T10:54:06;7.75;;;4.03;;
51495;SDS011;37572;52.094;4.870;2022-11-15T10:56:32;8.15;;;4.10;;
51495;SDS011;37572;52.094;4.870;2022-11-15T10:58:58;8.17;;;4.67;;
51495;SDS011;37572;52.094;4.870;2022-11-15T11:01:24;7.23;;;3.40;;
51495;SDS011;37572;52.094;4.870;2022-11-15T11:04:06;6.88;;;3.88;;
51495;SDS011;37572;52.094;4.870;2022-11-15T11:06:45;7.07;;;3.35;;
51495;SDS011;37572;52.094;4.870;2022-11-15T11:09:19;7.03;;;3.65;;
51495;SDS011;37572;52.094;4.870;2022-11-15T11:11:51;8.77;;;3.30;;
51495;SDS011;37572;52.094;4.870;2022-11-15T11:14:23;7.03;;;3.28;;
51495;SDS011;37572;52.094;4.870;2022-11-15T11:17:32;9.60;;;3.78;;
51495;SDS011;37572;52.094;4.870;2022-11-15T11:20:23;7.07;;;3.35;;
51495;SDS011;37572;52.094;4.870;2022-11-15T11:27:52;4.82;;;3.15;;
51495;SDS011;37572;52.094;4.870;2022-11-15T11:33:17;6.75;;;3.25;;
51495;SDS011;37572;52.094;4.870;2022-11-15T11:38:22;4.57;;;2.60;;
51495;SDS011;37572;52.094;4.870;2022-11-15T11:41:00;4.40;;;2.45;;
51495;SDS011;37572;52.094;4.870;2022-11-15T11:43:36;3.90;;;2.45;;
51495;SDS011;37572;52.094;4.870;2022-11-15T11:48:40;5.33;;;2.07;;
51495;SDS011;37572;52.094;4.870;2022-11-15T11:51:11;5.57;;;2.38;;
51495;SDS011;37572;52.094;4.870;2022-11-15T11:53:39;6.82;;;2.63;;
51495;SDS011;37572;52.094;4.870;2022-11-15T11:56:14;4.10;;;1.73;;
51495;SDS011;37572;52.094;4.870;2022-11-15T11:58:42;4.38;;;1.80;;
51495;SDS011;37572;52.094;4.870;2022-11-15T12:06:26;5.35;;;1.35;;
51495;SDS011;37572;52.094;4.870;2022-11-15T12:08:53;4.30;;;1.58;;
51495;SDS011;37572;52.094;4.870;2022-11-15T12:13:50;3.90;;;1.50;;
51495;SDS011;37572;52.094;4.870;2022-11-15T12:16:28;4.15;;;1.08;;
51495;SDS011;37572;52.094;4.870;2022-11-15T12:18:54;2.70;;;1.02;;
51495;SDS011;37572;52.094;4.870;2022-11-15T12:24:31;3.50;;;0.90;;
51495;SDS011;37572;52.094;4.870;2022-11-15T12:27:03;4.22;;;1.25;;
51495;SDS011;37572;52.094;4.870;2022-11-15T12:34:30;5.13;;;1.10;;
51495;SDS011;37572;52.094;4.870;2022-11-15T12:37:00;3.35;;;0.90;;
51495;SDS011;37572;52.094;4.870;2022-11-15T12:47:05;5.72;;;1.13;;
51495;SDS011;37572;52.094;4.870;2022-11-15T12:49:47;5.35;;;1.10;;
51495;SDS011;37572;52.094;4.870;2022-11-15T12:52:12;3.92;;;1.33;;
51495;SDS011;37572;52.094;4.870;2022-11-15T13:02:35;6.65;;;1.25;;
51495;SDS011;37572;52.094;4.870;2022-11-15T13:28:11;4.95;;;0.98;;
51495;SDS011;37572;52.094;4.870;2022-11-15T13:33:19;3.90;;;1.13;;
51495;SDS011;37572;52.094;4.870;2022-11-15T13:35:46;5.38;;;1.73;;
51495;SDS011;37572;52.094;4.870;2022-11-15T13:40:48;6.45;;;1.15;;
51495;SDS011;37572;52.094;4.870;2022-11-15T13:43:31;4.67;;;1.30;;
51495;SDS011;37572;52.094;4.870;2022-11-15T13:46:06;3.80;;;1.30;;
51495;SDS011;37572;52.094;4.870;2022-11-15T13:48:32;3.83;;;1.10;;
51495;SDS011;37572;52.094;4.870;2022-11-15T13:51:01;5.15;;;1.13;;
51495;SDS011;37572;52.094;4.870;2022-11-15T13:53:27;4.18;;;1.52;;
51495;SDS011;37572;52.094;4.870;2022-11-15T13:55:53;5.63;;;1.05;;
51495;SDS011;37572;52.094;4.870;2022-11-15T13:58:19;3.33;;;1.05;;
51495;SDS011;37572;52.094;4.870;2022-11-15T14:00:45;5.60;;;1.43;;
51495;SDS011;37572;52.094;4.870;2022-11-15T14:06:03;3.40;;;1.77;;
51495;SDS011;37572;52.094;4.870;2022-11-15T14:08:29;4.38;;;1.65;;
51495;SDS011;37572;52.094;4.870;2022-11-15T14:11:08;5.03;;;1.92;;
51495;SDS011;37572;52.094;4.870;2022-11-15T14:13:34;5.43;;;1.30;;
51495;SDS011;37572;52.094;4.870;2022-11-15T14:16:18;7.57;;;1.20;;
51495;SDS011;37572;52.094;4.870;2022-11-15T14:18:45;5.00;;;1.75;;
51495;SDS011;37572;52.094;4.870;2022-11-15T14:21:11;3.63;;;1.38;;
51495;SDS011;37572;52.094;4.870;2022-11-15T14:23:36;3.77;;;1.30;;
51495;SDS011;37572;52.094;4.870;2022-11-15T14:26:01;4.20;;;1.10;;
51495;SDS011;37572;52.094;4.870;2022-11-15T14:30:52;4.60;;;1.10;;
51495;SDS011;37572;52.094;4.870;2022-11-15T14:33:34;4.28;;;2.80;;
51495;SDS011;37572;52.094;4.870;2022-11-15T14:36:13;6.05;;;1.17;;
51495;SDS011;37572;52.094;4.870;2022-11-15T14:38:38;5.90;;;1.58;;
51495;SDS011;37572;52.094;4.870;2022-11-15T14:41:04;2.80;;;1.25;;
51495;SDS011;37572;52.094;4.870;2022-11-15T14:43:29;4.00;;;0.98;;
51495;SDS011;37572;52.094;4.870;2022-11-15T14:45:54;2.53;;;1.07;;
51495;SDS011;37572;52.094;4.870;2022-11-15T14:48:20;5.20;;;1.40;;
51495;SDS011;37572;52.094;4.870;2022-11-15T14:50:45;4.37;;;1.43;;
51495;SDS011;37572;52.094;4.870;2022-11-15T14:53:15;6.20;;;1.40;;
51495;SDS011;37572;52.094;4.870;2022-11-15T14:55:40;4.97;;;1.30;;
51495;SDS011;37572;52.094;4.870;2022-11-15T14:58:06;3.80;;;1.20;;
51495;SDS011;37572;52.094;4.870;2022-11-15T15:00:35;4.72;;;1.35;;
51495;SDS011;37572;52.094;4.870;2022-11-15T15:03:00;3.80;;;1.27;;
51495;SDS011;37572;52.094;4.870;2022-11-15T15:05:30;3.78;;;1.58;;
51495;SDS011;37572;52.094;4.870;2022-11-15T15:07:56;4.43;;;1.25;;
51495;SDS011;37572;52.094;4.870;2022-11-15T15:10:21;3.58;;;1.15;;
51495;SDS011;37572;52.094;4.870;2022-11-15T15:12:47;3.50;;;1.30;;
51495;SDS011;37572;52.094;4.870;2022-11-15T15:15:13;2.92;;;1.15;;
51495;SDS011;37572;52.094;4.870;2022-11-15T15:17:39;3.38;;;1.30;;
51495;SDS011;37572;52.094;4.870;2022-11-15T15:20:04;2.57;;;1.10;;
51495;SDS011;37572;52.094;4.870;2022-11-15T15:22:29;4.93;;;1.70;;
51495;SDS011;37572;52.094;4.870;2022-11-15T15:24:55;3.22;;;1.40;;
51495;SDS011;37572;52.094;4.870;2022-11-15T15:27:20;4.60;;;1.70;;
51495;SDS011;37572;52.094;4.870;2022-11-15T15:29:45;5.00;;;1.50;;
51495;SDS011;37572;52.094;4.870;2022-11-15T15:32:10;3.77;;;1.73;;
51495;SDS011;37572;52.094;4.870;2022-11-15T15:34:36;6.73;;;1.67;;
51495;SDS011;37572;52.094;4.870;2022-11-15T15:39:45;5.18;;;1.42;;
51495;SDS011;37572;52.094;4.870;2022-11-15T15:42:10;4.40;;;1.80;;
51495;SDS011;37572;52.094;4.870;2022-11-15T15:44:35;4.67;;;1.50;;
51495;SDS011;37572;52.094;4.870;2022-11-15T15:47:00;4.97;;;1.40;;
51495;SDS011;37572;52.094;4.870;2022-11-15T15:49:26;4.40;;;1.73;;
51495;SDS011;37572;52.094;4.870;2022-11-15T15:51:51;6.97;;;1.83;;
51495;SDS011;37572;52.094;4.870;2022-11-15T15:54:16;3.73;;;1.60;;
51495;SDS011;37572;52.094;4.870;2022-11-15T15:56:41;3.40;;;1.67;;
51495;SDS011;37572;52.094;4.870;2022-11-15T15:59:06;3.67;;;1.67;;
51495;SDS011;37572;52.094;4.870;2022-11-15T16:01:31;5.87;;;1.90;;
51495;SDS011;37572;52.094;4.870;2022-11-15T16:03:57;6.00;;;1.60;;
51495;SDS011;37572;52.094;4.870;2022-11-15T16:06:35;3.20;;;1.60;;
51495;SDS011;37572;52.094;4.870;2022-11-15T16:09:02;5.13;;;1.55;;
51495;SDS011;37572;52.094;4.870;2022-11-15T16:11:27;5.55;;;1.92;;
51495;SDS011;37572;52.094;4.870;2022-11-15T16:13:53;6.03;;;2.30;;
51495;SDS011;37572;52.094;4.870;2022-11-15T16:16:18;4.50;;;2.00;;
51495;SDS011;37572;52.094;4.870;2022-11-15T16:18:45;5.30;;;2.05;;
51495;SDS011;37572;52.094;4.870;2022-11-15T16:21:10;7.30;;;1.93;;
51495;SDS011;37572;52.094;4.870;2022-11-15T16:23:35;5.33;;;1.87;;
51495;SDS011;37572;52.094;4.870;2022-11-15T16:26:00;3.90;;;1.70;;
51495;SDS011;37572;52.094;4.870;2022-11-15T16:28:28;3.33;;;1.92;;
51495;SDS011;37572;52.094;4.870;2022-11-15T16:31:03;4.00;;;2.00;;
51495;SDS011;37572;52.094;4.870;2022-11-15T16:33:28;3.17;;;1.88;;
51495;SDS011;37572;52.094;4.870;2022-11-15T16:35:53;3.60;;;2.10;;
51495;SDS011;37572;52.094;4.870;2022-11-15T16:38:19;4.67;;;1.90;;
51495;SDS011;37572;52.094;4.870;2022-11-15T16:40:44;3.47;;;2.57;;
51495;SDS011;37572;52.094;4.870;2022-11-15T16:43:09;5.83;;;2.60;;